Time;durP1;ratioP1;P1;durP2;ratioP2;P2;SDS_P1;SDS_P2;PMS_P1;PMS_P2;Temp;Humidity;BMP_temperature;BMP_pressure;BME280_temperature;BME280_humidity;BME280_pressure;Samples;Min_cycle;Max_cycle;Signal;HPM_P1;HPM_P2
2023/08/24 00:02:06;;;;;;;3.45;2.65;;;25.50;99.90;;;;;;5031076;28;20649;-87
2023/08/24 00:04:32;;;;;;;4.25;2.88;;;25.40;99.90;;;;;;5031033;28;20037;-86
2023/08/24 00:06:58;;;;;;;10.20;3.00;;;25.40;99.90;;;;;;5032537;28;20053;-85
2023/08/24 00:09:24;;;;;;;4.18;2.78;;;25.40;99.90;;;;;;5010597;28;20064;-85
2023/08/24 00:11:50;;;;;;;6.47;2.97;;;25.40;99.90;;;;;;5030024;28;20026;-85
2023/08/24 00:14:15;;;;;;;4.22;2.70;;;25.30;99.90;;;;;;5012341;28;20038;-89
2023/08/24 00:16:42;;;;;;;7.85;3.17;;;25.30;99.90;;;;;;5031607;28;20076;-85
2023/08/24 00:19:08;;;;;;;6.07;2.80;;;25.30;99.90;;;;;;5030994;28;20466;-84
2023/08/24 00:21:33;;;;;;;3.90;2.80;;;25.20;99.90;;;;;;5030878;28;20083;-85
2023/08/24 00:23:59;;;;;;;3.50;2.88;;;25.20;99.90;;;;;;5031413;28;20530;-85
2023/08/24 00:26:25;;;;;;;3.85;2.80;;;25.20;99.90;;;;;;5031919;28;20026;-84
2023/08/24 00:28:51;;;;;;;4.72;2.80;;;25.20;99.90;;;;;;5051016;28;20087;-85
2023/08/24 00:31:17;;;;;;;5.45;3.00;;;25.10;99.90;;;;;;5042407;28;20022;-85
2023/08/24 00:33:43;;;;;;;3.75;2.80;;;25.10;99.90;;;;;;5031342;28;20029;-86
2023/08/24 00:36:09;;;;;;;5.68;3.10;;;25.10;99.90;;;;;;5031265;28;20025;-85
2023/08/24 00:38:34;;;;;;;7.07;3.20;;;25.10;99.90;;;;;;5031134;28;20032;-84
2023/08/24 00:41:00;;;;;;;5.82;3.13;;;25.00;99.90;;;;;;5031747;28;20036;-85
2023/08/24 00:43:27;;;;;;;6.68;2.88;;;24.90;99.90;;;;;;5049505;28;20468;-85
2023/08/24 00:45:55;;;;;;;5.22;2.90;;;25.00;99.90;;;;;;5050732;28;20108;-85
2023/08/24 00:48:25;;;;;;;4.70;2.85;;;24.90;99.90;;;;;;5050849;28;20021;-85
2023/08/24 00:50:52;;;;;;;7.05;3.45;;;24.90;99.90;;;;;;5050882;28;20497;-85
2023/08/24 00:53:18;;;;;;;4.50;3.15;;;24.80;99.90;;;;;;5050926;28;20024;-86
2023/08/24 00:55:44;;;;;;;4.13;3.20;;;24.80;99.90;;;;;;5041988;28;20029;-86
2023/08/24 00:58:10;;;;;;;4.97;2.80;;;24.70;99.90;;;;;;5029669;28;20022;-85
2023/08/24 01:00:37;;;;;;;4.55;3.30;;;24.70;99.90;;;;;;5028999;28;20048;-88
2023/08/24 01:03:03;;;;;;;5.45;3.40;;;24.60;99.90;;;;;;5029071;28;20018;-86
2023/08/24 01:05:29;;;;;;;5.50;3.42;;;24.60;99.90;;;;;;5013525;28;20025;-85
2023/08/24 01:07:55;;;;;;;6.05;3.30;;;24.50;99.90;;;;;;5011658;28;20029;-85
2023/08/24 01:10:21;;;;;;;4.75;3.20;;;24.50;99.90;;;;;;5030622;28;20037;-85
2023/08/24 01:13:00;;;;;;;4.43;3.22;;;24.50;99.90;;;;;;5029756;28;20076;-86
2023/08/24 01:15:38;;;;;;;6.47;3.40;;;24.50;99.90;;;;;;5028719;28;20088;-85
2023/08/24 01:18:10;;;;;;;;;;;24.50;99.90;;;;;;5014395;28;20108;-85
2023/08/24 01:20:37;;;;;;;4.43;3.47;;;24.40;99.90;;;;;;5028281;28;19912;-86
2023/08/24 01:23:21;;;;;;;4.28;3.30;;;24.30;99.90;;;;;;5029436;28;20064;-85
2023/08/24 01:26:13;;;;;;;6.72;3.80;;;24.20;99.90;;;;;;5026991;28;20036;-84
2023/08/24 01:28:41;;;;;;;5.03;3.28;;;24.20;99.90;;;;;;5027593;28;20048;-85
2023/08/24 01:31:07;;;;;;;4.05;2.95;;;24.20;99.90;;;;;;5029303;28;20029;-85
2023/08/24 01:33:33;;;;;;;9.82;3.10;;;24.20;99.90;;;;;;5028040;28;20060;-85
2023/08/24 01:35:59;;;;;;;6.75;3.53;;;24.20;99.90;;;;;;5030932;28;20788;-86
2023/08/24 01:38:25;;;;;;;3.92;3.03;;;24.20;99.90;;;;;;5029176;28;20033;-86
2023/08/24 01:41:00;;;;;;;5.22;3.25;;;24.20;99.90;;;;;;5029155;28;20072;-86
2023/08/24 01:43:29;;;;;;;6.57;3.45;;;24.20;99.90;;;;;;5029267;28;20100;-86
2023/08/24 01:45:57;;;;;;;6.30;3.50;;;24.20;99.90;;;;;;5028678;28;20014;-86
2023/08/24 01:48:24;;;;;;;;;;;24.20;99.90;;;;;;5029210;28;20033;-85
2023/08/24 01:50:50;;;;;;;5.95;3.50;;;24.20;99.90;;;;;;5029152;28;19917;-85
2023/08/24 01:53:16;;;;;;;6.45;3.50;;;24.10;99.90;;;;;;5029184;28;20029;-86
2023/08/24 01:55:42;;;;;;;4.47;3.40;;;24.10;99.90;;;;;;5029165;28;20025;-86
2023/08/24 01:58:08;;;;;;;5.68;3.63;;;24.10;99.90;;;;;;5027674;28;20057;-85
2023/08/24 02:00:34;;;;;;;4.55;2.80;;;24.10;99.90;;;;;;5011048;28;20034;-85
2023/08/24 02:03:00;;;;;;;3.45;3.10;;;24.00;99.90;;;;;;5029555;28;20033;-85
2023/08/24 02:05:27;;;;;;;6.63;3.40;;;24.10;99.90;;;;;;5027889;28;20029;-85
2023/08/24 02:07:54;;;;;;;6.43;3.58;;;24.00;99.90;;;;;;5028679;28;20060;-86
2023/08/24 02:10:19;;;;;;;4.13;3.17;;;24.00;99.90;;;;;;5028956;28;20443;-86
2023/08/24 02:12:45;;;;;;;4.93;2.90;;;24.00;99.90;;;;;;5027973;28;20556;-88
2023/08/24 02:15:11;;;;;;;4.25;3.30;;;24.00;99.90;;;;;;5029466;28;20037;-88
2023/08/24 02:17:36;;;;;;;6.38;3.47;;;23.90;99.90;;;;;;5026183;28;20033;-87
2023/08/24 02:20:03;;;;;;;10.60;3.42;;;23.90;99.90;;;;;;5030269;28;20025;-85
2023/08/24 02:22:30;;;;;;;5.47;3.40;;;23.90;99.90;;;;;;5027257;28;20092;-85
2023/08/24 02:24:55;;;;;;;9.70;3.17;;;23.90;99.90;;;;;;5027380;28;20025;-84
2023/08/24 02:27:21;;;;;;;5.90;3.17;;;23.90;99.90;;;;;;5009500;28;20033;-83
2023/08/24 02:29:47;;;;;;;6.10;3.47;;;23.90;99.90;;;;;;5026834;28;20037;-85
2023/08/24 02:32:12;;;;;;;5.90;3.40;;;23.80;99.90;;;;;;5027103;28;20099;-85
2023/08/24 02:34:38;;;;;;;6.65;3.65;;;23.80;99.90;;;;;;5029188;28;20022;-83
2023/08/24 02:37:04;;;;;;;5.30;3.45;;;23.70;99.90;;;;;;5028365;28;20021;-84
2023/08/24 02:39:30;;;;;;;6.85;3.38;;;23.60;99.90;;;;;;5027781;28;20025;-84
2023/08/24 02:41:55;;;;;;;7.40;3.65;;;23.60;99.90;;;;;;5010399;28;20029;-86
2023/08/24 02:44:21;;;;;;;7.30;3.28;;;23.60;99.90;;;;;;5028771;28;20031;-84
2023/08/24 02:46:48;;;;;;;4.63;3.10;;;23.50;99.90;;;;;;5028672;28;20025;-84
2023/08/24 02:49:14;;;;;;;7.17;3.50;;;23.40;99.90;;;;;;5028913;28;20040;-85
2023/08/24 02:51:39;;;;;;;7.22;3.28;;;23.40;99.90;;;;;;5027960;28;20022;-84
2023/08/24 02:54:05;;;;;;;9.07;3.33;;;23.40;99.90;;;;;;5028062;28;20030;-84
2023/08/24 02:56:31;;;;;;;6.60;3.53;;;23.30;99.90;;;;;;5029138;28;20025;-88
2023/08/24 02:58:56;;;;;;;6.03;3.20;;;23.30;99.90;;;;;;5026281;28;20037;-84
2023/08/24 03:01:22;;;;;;;6.60;3.35;;;23.20;99.90;;;;;;5028866;28;20474;-84
2023/08/24 03:03:48;;;;;;;11.02;3.30;;;23.20;99.90;;;;;;5026980;28;20037;-85
2023/08/24 03:06:13;;;;;;;7.03;3.10;;;23.10;99.90;;;;;;5024577;28;20521;-84
2023/08/24 03:08:39;;;;;;;5.53;3.33;;;23.00;99.90;;;;;;5023247;28;20045;-83
2023/08/24 03:11:04;;;;;;;12.43;3.20;;;23.00;99.90;;;;;;5022203;28;20558;-85
2023/08/24 03:13:30;;;;;;;15.75;3.20;;;22.90;99.90;;;;;;5025635;28;20029;-84
2023/08/24 03:15:56;;;;;;;6.75;3.40;;;22.80;99.90;;;;;;5028273;28;20029;-88
2023/08/24 03:18:22;;;;;;;6.65;3.00;;;22.80;99.90;;;;;;5026582;28;20038;-85
2023/08/24 03:20:49;;;;;;;9.25;3.65;;;22.60;99.90;;;;;;5031537;28;20427;-87
2023/08/24 03:23:15;;;;;;;8.05;3.33;;;22.50;99.90;;;;;;5039965;28;20021;-89
2023/08/24 03:25:42;;;;;;;7.97;3.22;;;22.40;99.90;;;;;;5015910;28;20067;-87
2023/08/24 03:28:09;;;;;;;12.48;3.85;;;22.40;99.90;;;;;;5009617;28;20032;-84
2023/08/24 03:30:36;;;;;;;9.52;3.50;;;22.30;99.90;;;;;;5009517;28;20049;-87
2023/08/24 03:33:02;;;;;;;9.75;3.58;;;22.20;99.90;;;;;;5037755;28;20021;-85
2023/08/24 03:35:32;;;;;;;8.43;3.22;;;22.20;99.90;;;;;;5010640;28;20052;-86
2023/08/24 03:37:58;;;;;;;10.77;3.58;;;22.20;99.90;;;;;;5001772;28;20030;-87
2023/08/24 03:40:24;;;;;;;10.85;3.65;;;22.00;99.90;;;;;;5014139;28;20125;-87
2023/08/24 03:42:50;;;;;;;7.90;3.30;;;22.00;99.90;;;;;;5014346;28;20041;-84
2023/08/24 03:45:16;;;;;;;8.00;3.53;;;22.00;99.90;;;;;;5014441;28;20029;-88
2023/08/24 03:47:41;;;;;;;8.75;3.97;;;22.00;99.90;;;;;;5031655;28;20074;-89
2023/08/24 03:50:07;;;;;;;5.20;3.38;;;21.90;99.90;;;;;;5038508;28;20397;-86
2023/08/24 03:52:33;;;;;;;10.30;3.78;;;22.00;99.90;;;;;;5031217;28;20026;-88
2023/08/24 03:54:59;;;;;;;5.88;3.28;;;22.00;99.90;;;;;;5031423;28;20033;-86
2023/08/24 03:57:24;;;;;;;4.70;3.13;;;22.00;99.90;;;;;;5030491;28;20022;-84
2023/08/24 03:59:50;;;;;;;8.82;3.42;;;22.10;99.90;;;;;;5029403;28;21181;-88
2023/08/24 04:02:16;;;;;;;11.35;3.17;;;22.00;99.90;;;;;;5014072;28;20458;-87
2023/08/24 04:04:41;;;;;;;8.70;3.47;;;22.00;99.90;;;;;;5030083;28;20037;-87
2023/08/24 04:07:07;;;;;;;5.47;2.92;;;22.00;99.90;;;;;;5032369;28;20025;-86
2023/08/24 04:09:33;;;;;;;7.32;3.25;;;22.00;99.90;;;;;;5028052;28;20383;-90
2023/08/24 04:11:58;;;;;;;8.93;3.55;;;22.00;99.90;;;;;;5041102;28;20092;-88
2023/08/24 04:14:24;;;;;;;9.73;3.30;;;22.00;99.90;;;;;;5051660;28;20029;-88
2023/08/24 04:16:49;;;;;;;7.85;3.15;;;22.00;99.90;;;;;;5015098;28;20497;-92
2023/08/24 04:19:15;;;;;;;8.30;3.22;;;21.90;99.90;;;;;;5031183;28;20030;-88
2023/08/24 04:21:41;;;;;;;8.68;3.13;;;21.90;99.90;;;;;;5025862;28;20502;-89
2023/08/24 04:24:07;;;;;;;9.82;3.25;;;22.00;99.90;;;;;;5026537;28;20030;-89
2023/08/24 04:26:32;;;;;;;9.98;3.15;;;22.00;99.90;;;;;;5030420;28;20037;-87
2023/08/24 04:28:58;;;;;;;6.10;3.03;;;22.00;99.90;;;;;;5031361;28;20047;-90
2023/08/24 04:31:23;;;;;;;12.38;3.35;;;22.00;99.90;;;;;;5013678;28;20025;-88
2023/08/24 04:33:49;;;;;;;7.63;3.10;;;21.90;99.90;;;;;;5013289;28;20120;-88
2023/08/24 04:36:15;;;;;;;7.22;3.03;;;22.00;99.90;;;;;;5031097;28;20017;-90
2023/08/24 04:38:40;;;;;;;8.38;3.22;;;21.90;99.90;;;;;;5013609;28;20025;-90
2023/08/24 04:41:09;;;;;;;6.18;3.15;;;21.90;99.90;;;;;;5031671;28;20053;-88
2023/08/24 04:43:36;;;;;;;7.70;3.20;;;21.90;99.90;;;;;;5026232;28;20022;-88
2023/08/24 04:46:02;;;;;;;7.43;3.17;;;22.00;99.90;;;;;;5019324;28;20057;-88
2023/08/24 04:48:32;;;;;;;7.03;3.08;;;22.10;99.90;;;;;;5030800;28;20060;-88
2023/08/24 04:51:01;;;;;;;7.28;3.20;;;22.10;99.90;;;;;;5023884;28;20640;-88
2023/08/24 04:53:27;;;;;;;6.80;3.25;;;22.10;99.90;;;;;;5020334;28;20571;-86
2023/08/24 04:55:53;;;;;;;8.18;3.05;;;22.00;99.90;;;;;;5028722;28;20029;-90
2023/08/24 04:58:19;;;;;;;8.80;3.35;;;22.10;99.90;;;;;;5031582;28;20022;-89
2023/08/24 05:00:45;;;;;;;8.68;3.10;;;22.20;99.90;;;;;;5037344;28;20030;-91
2023/08/24 05:03:10;;;;;;;9.00;3.05;;;22.30;99.90;;;;;;5032007;28;20025;-88
2023/08/24 05:05:37;;;;;;;8.57;3.33;;;22.20;99.90;;;;;;5031913;28;20155;-90
2023/08/24 05:08:09;;;;;;;6.07;3.25;;;22.30;99.90;;;;;;5012266;28;20082;-90
2023/08/24 05:10:38;;;;;;;5.70;3.05;;;22.30;99.90;;;;;;5013588;28;20037;-93
2023/08/24 05:13:04;;;;;;;3.22;2.55;;;22.30;99.90;;;;;;5014850;28;20025;-91
2023/08/24 05:15:30;;;;;;;5.78;3.05;;;22.40;99.90;;;;;;5014447;28;20029;-92
2023/08/24 05:17:56;;;;;;;6.10;3.10;;;22.40;99.90;;;;;;5013815;28;20032;-90
2023/08/24 05:20:28;;;;;;;4.95;2.47;;;22.40;99.90;;;;;;5014550;28;20022;-91
2023/08/24 05:22:54;;;;;;;5.68;2.42;;;22.40;99.90;;;;;;5029824;28;20033;-91
2023/08/24 05:25:21;;;;;;;5.25;2.83;;;22.50;99.90;;;;;;5012769;28;20025;-86
2023/08/24 05:27:47;;;;;;;6.47;2.90;;;22.50;99.90;;;;;;5029980;28;20083;-86
2023/08/24 05:30:13;;;;;;;7.63;2.55;;;22.60;99.90;;;;;;5030946;28;20037;-87
2023/08/24 05:32:38;;;;;;;8.40;2.70;;;22.70;99.90;;;;;;5029141;28;20021;-86
2023/08/24 05:35:05;;;;;;;5.32;2.50;;;22.60;99.90;;;;;;5029991;28;20250;-86
2023/08/24 05:37:31;;;;;;;7.72;2.60;;;22.70;99.90;;;;;;5024851;28;20394;-86
2023/08/24 05:39:56;;;;;;;6.68;2.90;;;22.70;99.90;;;;;;4992743;28;20490;-86
2023/08/24 05:42:22;;;;;;;5.47;2.58;;;22.80;99.90;;;;;;5010362;28;20375;-86
2023/08/24 05:44:47;;;;;;;6.25;2.58;;;22.80;99.90;;;;;;5010219;28;20026;-86
2023/08/24 05:47:13;;;;;;;6.05;3.15;;;22.90;99.90;;;;;;5027489;28;20029;-86
2023/08/24 05:49:39;;;;;;;4.68;2.60;;;22.80;99.90;;;;;;5029875;28;20068;-86
2023/08/24 05:52:04;;;;;;;5.85;2.78;;;22.90;99.90;;;;;;5011904;28;20507;-86
2023/08/24 05:54:30;;;;;;;6.15;2.85;;;23.00;99.90;;;;;;5028552;28;20532;-86
2023/08/24 05:57:00;;;;;;;6.40;2.50;;;23.00;99.90;;;;;;5029630;28;20474;-86
2023/08/24 05:59:26;;;;;;;5.10;2.80;;;23.00;99.90;;;;;;5029492;28;20021;-86
2023/08/24 06:01:51;;;;;;;6.18;2.47;;;23.00;99.90;;;;;;5010815;28;20485;-87
2023/08/24 06:04:17;;;;;;;6.30;2.58;;;23.00;99.90;;;;;;5029592;28;20032;-86
2023/08/24 06:06:43;;;;;;;5.07;2.65;;;23.10;99.90;;;;;;5030405;28;20104;-88
2023/08/24 06:09:09;;;;;;;5.05;2.60;;;23.10;99.90;;;;;;5011742;28;20041;-87
2023/08/24 06:11:35;;;;;;;7.65;2.95;;;23.20;99.90;;;;;;5026983;28;20096;-86
2023/08/24 06:14:01;;;;;;;6.13;2.72;;;23.30;99.90;;;;;;5029582;28;20112;-87
2023/08/24 06:16:30;;;;;;;5.22;2.50;;;23.20;99.90;;;;;;5011077;28;20393;-86
2023/08/24 06:18:56;;;;;;;5.50;2.80;;;23.30;99.90;;;;;;5029365;28;20100;-85
2023/08/24 06:21:21;;;;;;;4.25;2.60;;;23.30;99.90;;;;;;5029370;28;20104;-87
2023/08/24 06:23:47;;;;;;;5.15;2.78;;;23.30;99.90;;;;;;5012358;28;20034;-87
2023/08/24 06:26:14;;;;;;;7.60;3.25;;;23.40;99.90;;;;;;5029193;28;20032;-87
2023/08/24 06:28:39;;;;;;;6.28;2.80;;;23.40;99.90;;;;;;5029195;28;20080;-87
2023/08/24 06:31:07;;;;;;;9.50;2.97;;;23.40;99.90;;;;;;5007856;28;20572;-89
2023/08/24 06:33:36;;;;;;;6.00;2.90;;;23.40;99.90;;;;;;5009532;28;20478;-87
2023/08/24 06:36:06;;;;;;;3.95;2.72;;;23.50;99.90;;;;;;4991793;28;20037;-87
2023/08/24 06:38:32;;;;;;;7.22;2.70;;;23.50;99.90;;;;;;4991690;28;20104;-89
2023/08/24 06:40:58;;;;;;;6.68;3.00;;;23.50;99.90;;;;;;5009507;28;20081;-89
2023/08/24 06:43:25;;;;;;;4.93;2.85;;;23.50;99.90;;;;;;5009487;28;20026;-86
2023/08/24 06:45:51;;;;;;;5.07;3.00;;;23.50;99.90;;;;;;5022043;28;20033;-86
2023/08/24 06:48:17;;;;;;;7.57;2.97;;;23.50;99.90;;;;;;5029696;28;20087;-87
2023/08/24 06:50:43;;;;;;;7.15;3.28;;;23.50;99.90;;;;;;5011367;28;20029;-87
2023/08/24 06:53:09;;;;;;;9.45;2.83;;;23.50;99.90;;;;;;5011257;28;20243;-89
2023/08/24 06:55:34;;;;;;;6.10;2.50;;;23.60;99.90;;;;;;5029070;28;20548;-86
2023/08/24 06:58:00;;;;;;;4.63;2.65;;;23.60;99.90;;;;;;5028865;28;20097;-87
2023/08/24 07:00:25;;;;;;;5.68;2.78;;;23.50;99.90;;;;;;4997416;28;20026;-86
2023/08/24 07:02:51;;;;;;;5.63;3.00;;;23.50;99.90;;;;;;5007824;28;20029;-87
2023/08/24 07:05:20;;;;;;;6.50;2.88;;;23.50;99.90;;;;;;5010040;28;20061;-87
2023/08/24 07:07:47;;;;;;;7.43;2.80;;;23.30;99.90;;;;;;5010049;28;20556;-87
2023/08/24 07:10:13;;;;;;;7.43;3.05;;;23.10;99.90;;;;;;5009137;28;20026;-86
2023/08/24 07:12:41;;;;;;;11.88;3.10;;;23.20;99.90;;;;;;4994444;28;20482;-86
2023/08/24 07:15:08;;;;;;;7.10;3.00;;;23.10;99.90;;;;;;5024628;28;20033;-86
2023/08/24 07:17:34;;;;;;;6.53;3.38;;;23.20;99.90;;;;;;5032616;28;20512;-86
2023/08/24 07:20:00;;;;;;;4.60;2.92;;;23.20;99.90;;;;;;5032724;28;20021;-87
2023/08/24 07:22:28;;;;;;;4.72;2.80;;;23.30;99.90;;;;;;5014916;28;20029;-87
2023/08/24 07:24:54;;;;;;;8.10;2.80;;;23.30;99.90;;;;;;5032657;28;20025;-86
2023/08/24 07:27:19;;;;;;;7.43;3.42;;;23.40;99.90;;;;;;5033443;28;20091;-86
2023/08/24 07:29:45;;;;;;;11.18;2.97;;;23.20;99.90;;;;;;5031548;28;20551;-86
2023/08/24 07:32:11;;;;;;;6.20;2.70;;;23.20;99.90;;;;;;5032623;28;20061;-87
2023/08/24 07:34:36;;;;;;;3.50;2.78;;;23.20;99.90;;;;;;5014792;28;20034;-86
2023/08/24 07:37:02;;;;;;;5.90;3.10;;;23.10;99.90;;;;;;5031388;28;20044;-86
2023/08/24 07:39:28;;;;;;;5.95;2.90;;;23.20;99.90;;;;;;5032429;28;20051;-86
2023/08/24 07:41:54;;;;;;;5.00;2.58;;;23.20;99.90;;;;;;5032277;28;20382;-86
2023/08/24 07:44:19;;;;;;;7.57;3.00;;;23.30;99.90;;;;;;5032108;28;20036;-86
2023/08/24 07:46:46;;;;;;;5.22;2.90;;;23.30;99.90;;;;;;5032184;28;20482;-86
2023/08/24 07:49:12;;;;;;;5.13;3.10;;;23.20;99.90;;;;;;5032097;28;20437;-87
2023/08/24 07:51:37;;;;;;;5.43;2.72;;;23.20;99.90;;;;;;5014395;28;20489;-86
2023/08/24 07:54:04;;;;;;;6.43;2.88;;;23.30;99.90;;;;;;5030782;28;20022;-87
2023/08/24 07:56:30;;;;;;;4.30;2.75;;;23.30;99.90;;;;;;5030703;28;20120;-87
2023/08/24 07:58:55;;;;;;;7.78;3.30;;;23.40;99.90;;;;;;5031185;28;20128;-87
2023/08/24 08:01:21;;;;;;;9.20;2.88;;;23.40;99.90;;;;;;5031433;28;20068;-87
2023/08/24 08:03:47;;;;;;;5.95;2.90;;;23.40;99.90;;;;;;5031889;28;20089;-86
2023/08/24 08:06:13;;;;;;;6.03;2.60;;;23.40;99.90;;;;;;5031906;28;20361;-86
2023/08/24 08:08:39;;;;;;;5.90;2.83;;;23.40;99.90;;;;;;5013022;28;20057;-86
2023/08/24 08:11:05;;;;;;;5.47;2.67;;;23.40;99.90;;;;;;5031919;28;20059;-87
2023/08/24 08:13:30;;;;;;;4.80;2.72;;;23.40;99.90;;;;;;5030683;28;20025;-87
2023/08/24 08:16:06;;;;;;;5.25;2.80;;;23.50;99.90;;;;;;5031717;28;20079;-86
2023/08/24 08:18:33;;;;;;;4.38;2.78;;;23.60;99.90;;;;;;5031746;28;20053;-86
2023/08/24 08:20:59;;;;;;;5.97;3.17;;;23.60;99.90;;;;;;5013930;28;20048;-87
2023/08/24 08:23:25;;;;;;;8.75;3.15;;;23.60;99.90;;;;;;5030921;28;20444;-86
2023/08/24 08:25:50;;;;;;;5.97;3.10;;;23.60;99.90;;;;;;5014633;28;20025;-86
2023/08/24 08:28:17;;;;;;;5.65;2.85;;;23.70;99.90;;;;;;5012581;28;20512;-86
2023/08/24 08:30:44;;;;;;;8.13;3.50;;;23.60;99.90;;;;;;5030803;28;20040;-86
2023/08/24 08:33:09;;;;;;;7.57;3.30;;;23.60;99.90;;;;;;5013669;28;20057;-87
2023/08/24 08:35:35;;;;;;;6.15;3.67;;;23.60;99.90;;;;;;5031435;28;20600;-87
2023/08/24 08:38:01;;;;;;;7.50;3.53;;;23.60;99.90;;;;;;5031268;28;20029;-87
2023/08/24 08:40:30;;;;;;;7.32;3.38;;;23.70;99.90;;;;;;5031172;28;20029;-87
2023/08/24 08:42:59;;;;;;;5.10;3.47;;;23.70;99.90;;;;;;5012383;28;20065;-86
2023/08/24 08:45:28;;;;;;;6.72;3.42;;;23.80;99.90;;;;;;5031634;28;20036;-86
2023/08/24 08:48:02;;;;;;;6.13;3.50;;;23.80;99.90;;;;;;5032007;28;20029;-86
2023/08/24 08:50:29;;;;;;;7.28;3.50;;;23.90;99.90;;;;;;5030993;28;20076;-86
2023/08/24 08:52:56;;;;;;;10.45;3.95;;;23.90;99.90;;;;;;5013950;28;20025;-86
2023/08/24 08:55:22;;;;;;;9.48;3.20;;;23.90;99.90;;;;;;5031781;28;20024;-86
2023/08/24 08:57:49;;;;;;;11.10;3.30;;;23.90;99.90;;;;;;5030004;28;20031;-86
2023/08/24 09:00:16;;;;;;;11.35;3.30;;;24.00;99.90;;;;;;5030917;28;20071;-87
2023/08/24 09:02:44;;;;;;;3.53;2.83;;;24.10;99.90;;;;;;5030997;28;20036;-86
2023/08/24 09:05:11;;;;;;;11.25;3.45;;;24.20;99.90;;;;;;5030834;28;20033;-86
2023/08/24 09:07:41;;;;;;;6.07;3.40;;;24.20;99.90;;;;;;5029637;28;20532;-87
2023/08/24 09:10:07;;;;;;;6.97;2.90;;;24.30;99.90;;;;;;5030693;28;20042;-87
2023/08/24 09:12:34;;;;;;;6.57;3.80;;;24.30;99.90;;;;;;5031046;28;20378;-87
2023/08/24 09:15:00;;;;;;;5.82;3.00;;;24.40;99.90;;;;;;5030709;28;20047;-87
2023/08/24 09:17:26;;;;;;;6.55;3.30;;;24.50;99.90;;;;;;5012585;28;20428;-86
2023/08/24 09:19:58;;;;;;;5.28;2.92;;;24.60;99.90;;;;;;5031372;28;20029;-87
2023/08/24 09:22:23;;;;;;;8.35;3.30;;;24.60;99.90;;;;;;5031225;28;20022;-86
2023/08/24 09:24:54;;;;;;;7.20;3.40;;;24.60;99.90;;;;;;5030374;28;20393;-87
2023/08/24 09:27:21;;;;;;;11.63;3.70;;;24.60;99.90;;;;;;5029305;28;20025;-86
2023/08/24 09:29:51;;;;;;;5.97;3.20;;;24.60;99.90;;;;;;5030013;28;20292;-88
2023/08/24 09:32:44;;;;;;;9.40;3.50;;;24.60;99.90;;;;;;5029446;28;20352;-86
2023/08/24 09:35:10;;;;;;;8.48;3.72;;;24.60;99.90;;;;;;5026854;28;20107;-87
2023/08/24 09:37:37;;;;;;;11.00;5.07;;;24.60;99.90;;;;;;5030135;28;20425;-86
2023/08/24 09:40:09;;;;;;;10.18;4.10;;;24.50;99.90;;;;;;5030145;28;20024;-86
2023/08/24 09:42:44;;;;;;;9.85;3.90;;;24.50;99.90;;;;;;5029015;28;20025;-86
2023/08/24 09:45:14;;;;;;;11.85;3.65;;;24.50;99.90;;;;;;5010183;28;20022;-86
2023/08/24 09:47:44;;;;;;;11.13;4.10;;;24.50;99.90;;;;;;5011099;28;20060;-86
2023/08/24 09:50:10;;;;;;;6.80;3.88;;;24.50;99.90;;;;;;5012059;28;20034;-86
2023/08/24 09:52:37;;;;;;;7.93;4.03;;;24.50;99.90;;;;;;5028781;28;20080;-86
2023/08/24 09:55:08;;;;;;;16.67;4.35;;;24.40;99.90;;;;;;5028782;28;20030;-87
2023/08/24 09:57:38;;;;;;;9.27;4.50;;;24.40;99.90;;;;;;5028771;28;20041;-87
2023/08/24 10:00:11;;;;;;;8.15;4.20;;;24.40;99.90;;;;;;5028767;28;20075;-87
2023/08/24 10:02:53;;;;;;;13.70;4.53;;;24.40;99.90;;;;;;5029715;28;20108;-86
2023/08/24 10:05:23;;;;;;;10.73;4.85;;;24.30;99.90;;;;;;5028784;28;20405;-86
2023/08/24 10:07:55;;;;;;;8.07;4.50;;;24.30;99.90;;;;;;5019945;28;20367;-87
2023/08/24 10:10:24;;;;;;;10.00;5.03;;;24.20;99.90;;;;;;5009789;28;20037;-88
2023/08/24 10:13:06;;;;;;;11.18;4.90;;;24.20;99.90;;;;;;5025253;28;20037;-87
2023/08/24 10:15:32;;;;;;;7.50;4.57;;;24.30;99.90;;;;;;5028651;28;20030;-89
2023/08/24 10:18:01;;;;;;;8.10;4.38;;;24.20;99.90;;;;;;5030463;28;20030;-88
2023/08/24 10:20:27;;;;;;;10.35;4.85;;;24.30;99.90;;;;;;5029678;28;20025;-86
2023/08/24 10:22:53;;;;;;;7.13;4.68;;;24.30;99.90;;;;;;5029301;28;20100;-87
2023/08/24 10:25:20;;;;;;;8.25;5.07;;;24.30;99.90;;;;;;5029459;28;20139;-86
2023/08/24 10:27:47;;;;;;;11.75;5.70;;;24.40;99.90;;;;;;5029305;28;20026;-87
2023/08/24 10:30:15;;;;;;;7.43;4.75;;;24.30;99.90;;;;;;5011328;28;20514;-86
2023/08/24 10:32:42;;;;;;;9.73;4.83;;;24.40;99.90;;;;;;5028332;28;20044;-86
2023/08/24 10:35:08;;;;;;;9.57;4.93;;;24.40;99.90;;;;;;5028785;28;20375;-87
2023/08/24 10:37:34;;;;;;;11.75;4.78;;;24.40;99.90;;;;;;5027998;28;20177;-86
2023/08/24 10:40:00;;;;;;;13.38;5.10;;;24.40;99.90;;;;;;5030096;28;20119;-87
2023/08/24 10:42:26;;;;;;;9.88;4.45;;;24.40;99.90;;;;;;5029852;28;20397;-87
2023/08/24 10:44:52;;;;;;;11.77;4.82;;;24.50;99.90;;;;;;5028031;28;20491;-87
2023/08/24 10:47:19;;;;;;;8.40;4.47;;;24.50;99.90;;;;;;5027992;28;20520;-86
2023/08/24 10:49:57;;;;;;;9.88;4.25;;;24.60;99.90;;;;;;5028005;28;20077;-86
2023/08/24 10:52:23;;;;;;;11.73;4.40;;;24.60;99.90;;;;;;5029082;28;20018;-86
2023/08/24 10:54:51;;;;;;;6.57;4.00;;;24.60;99.90;;;;;;5028987;28;20038;-87
2023/08/24 10:57:34;;;;;;;6.95;4.10;;;24.70;99.90;;;;;;5011272;28;20009;-87
2023/08/24 11:00:05;;;;;;;8.77;3.70;;;24.70;99.90;;;;;;5028979;28;20044;-86
2023/08/24 11:02:42;;;;;;;6.93;4.20;;;24.80;99.90;;;;;;5029727;28;20018;-88
2023/08/24 11:05:25;;;;;;;8.93;4.10;;;24.90;99.90;;;;;;5010959;28;20025;-87
2023/08/24 11:08:06;;;;;;;6.45;3.90;;;25.10;99.90;;;;;;5028952;28;20363;-87
2023/08/24 11:10:42;;;;;;;7.55;4.22;;;25.10;99.90;;;;;;5029615;28;20413;-87
2023/08/24 11:13:13;;;;;;;6.05;3.67;;;25.30;99.90;;;;;;5028870;28;20032;-87
2023/08/24 11:15:47;;;;;;;8.90;3.95;;;25.30;99.90;;;;;;5009730;28;20401;-87
2023/08/24 11:18:18;;;;;;;6.47;4.07;;;25.50;99.90;;;;;;5028826;28;20516;-87
2023/08/24 11:20:49;;;;;;;7.28;4.07;;;25.60;99.90;;;;;;5028772;28;20093;-86
2023/08/24 11:23:19;;;;;;;5.68;3.90;;;25.70;99.90;;;;;;5028849;28;20036;-87
2023/08/24 11:25:46;;;;;;;7.28;4.05;;;25.90;99.90;;;;;;5028626;28;20448;-87
2023/08/24 11:28:16;;;;;;;13.63;3.90;;;26.00;99.90;;;;;;5027442;28;20029;-87
2023/08/24 11:30:43;;;;;;;7.35;3.50;;;26.10;99.90;;;;;;5028623;28;20033;-87
2023/08/24 11:33:08;;;;;;;12.32;4.13;;;26.20;99.90;;;;;;5028634;28;20034;-87
2023/08/24 11:35:38;;;;;;;5.88;3.50;;;26.20;99.90;;;;;;5029213;28;20044;-87
2023/08/24 11:38:04;;;;;;;4.47;3.38;;;26.30;99.90;;;;;;5028804;28;20021;-86
2023/08/24 11:40:30;;;;;;;6.78;3.35;;;26.30;99.90;;;;;;5011610;28;20370;-87
2023/08/24 11:42:56;;;;;;;8.23;3.33;;;26.40;99.90;;;;;;5027615;28;20033;-88
2023/08/24 11:45:23;;;;;;;5.28;3.35;;;26.40;99.90;;;;;;5028588;28;20022;-88
2023/08/24 11:47:50;;;;;;;5.85;3.53;;;26.50;99.90;;;;;;5028622;28;20029;-87
2023/08/24 11:50:16;;;;;;;6.13;3.10;;;26.50;99.90;;;;;;5028436;28;20069;-88
2023/08/24 11:52:42;;;;;;;6.45;3.30;;;26.50;99.90;;;;;;5028562;28;20089;-88
2023/08/24 11:55:08;;;;;;;9.38;3.42;;;26.50;99.90;;;;;;5027716;28;20029;-87
2023/08/24 11:57:37;;;;;;;5.22;3.10;;;26.50;99.90;;;;;;5028423;28;20485;-88
2023/08/24 12:00:05;;;;;;;7.50;3.40;;;26.50;99.90;;;;;;5012870;28;20048;-88
2023/08/24 12:02:32;;;;;;;4.97;3.42;;;26.60;99.90;;;;;;5013239;28;20029;-86
2023/08/24 12:04:58;;;;;;;6.60;3.47;;;26.60;99.90;;;;;;5012231;28;20101;-88
2023/08/24 12:07:24;;;;;;;6.65;3.20;;;26.70;99.90;;;;;;5012258;28;20013;-88
2023/08/24 12:09:54;;;;;;;4.55;3.05;;;26.80;99.90;;;;;;5011992;28;20038;-88
2023/08/24 12:12:20;;;;;;;4.70;3.10;;;26.80;99.90;;;;;;5008887;28;20388;-88
2023/08/24 12:14:47;;;;;;;10.63;3.70;;;26.90;99.90;;;;;;5013105;28;20044;-88
2023/08/24 12:17:15;;;;;;;7.38;3.53;;;27.00;99.90;;;;;;5031121;28;20026;-87
2023/08/24 12:19:45;;;;;;;5.72;3.38;;;27.00;99.90;;;;;;5031667;28;20030;-87
2023/08/24 12:22:15;;;;;;;7.90;3.28;;;27.10;99.90;;;;;;5031723;28;20018;-87
2023/08/24 12:24:45;;;;;;;4.45;3.17;;;27.20;99.90;;;;;;5031682;28;20482;-88
2023/08/24 12:27:22;;;;;;;6.45;3.10;;;27.20;99.90;;;;;;5011901;28;20108;-87
2023/08/24 12:29:47;;;;;;;8.00;3.35;;;27.30;99.90;;;;;;5030760;28;20037;-87
2023/08/24 12:32:15;;;;;;;7.13;2.80;;;27.30;99.90;;;;;;5031431;28;20092;-87
2023/08/24 12:34:40;;;;;;;8.85;2.80;;;27.30;99.90;;;;;;5014125;28;20422;-87
2023/08/24 12:37:06;;;;;;;7.57;3.08;;;27.30;99.90;;;;;;5031474;28;20525;-87
2023/08/24 12:39:36;;;;;;;4.78;3.15;;;27.40;99.90;;;;;;5031739;28;20030;-87
2023/08/24 12:42:02;;;;;;;6.70;3.13;;;27.40;99.90;;;;;;5031246;28;20025;-88
2023/08/24 12:44:28;;;;;;;7.95;3.05;;;27.50;99.90;;;;;;5030378;28;20033;-88
2023/08/24 12:46:53;;;;;;;7.07;2.80;;;27.50;99.90;;;;;;5031141;28;20028;-88